sensor_id;sensor_type;location;lat;lon;timestamp;P1;durP1;ratioP1;P2;durP2;ratioP2
7193;SDS011;3638;48.820;9.244;2023-04-03T00:00:58;5.47;;;4.70;;
7193;SDS011;3638;48.820;9.244;2023-04-03T00:03:25;5.73;;;4.33;;
7193;SDS011;3638;48.820;9.244;2023-04-03T00:05:52;4.97;;;4.57;;
7193;SDS011;3638;48.820;9.244;2023-04-03T00:08:19;4.53;;;4.20;;
7193;SDS011;3638;48.820;9.244;2023-04-03T00:10:47;4.97;;;4.13;;
7193;SDS011;3638;48.820;9.244;2023-04-03T00:13:16;5.43;;;4.43;;
7193;SDS011;3638;48.820;9.244;2023-04-03T00:15:44;4.60;;;4.10;;
7193;SDS011;3638;48.820;9.244;2023-04-03T00:18:11;4.77;;;4.37;;
7193;SDS011;3638;48.820;9.244;2023-04-03T00:20:38;4.33;;;4.03;;
7193;SDS011;3638;48.820;9.244;2023-04-03T00:23:05;4.67;;;4.27;;
7193;SDS011;3638;48.820;9.244;2023-04-03T00:25:32;4.70;;;4.30;;
7193;SDS011;3638;48.820;9.244;2023-04-03T00:27:59;4.93;;;4.43;;
7193;SDS011;3638;48.820;9.244;2023-04-03T00:30:28;5.17;;;4.37;;
7193;SDS011;3638;48.820;9.244;2023-04-03T00:32:55;5.77;;;4.70;;
7193;SDS011;3638;48.820;9.244;2023-04-03T00:35:23;7.33;;;4.60;;
7193;SDS011;3638;48.820;9.244;2023-04-03T00:37:50;6.87;;;4.20;;
7193;SDS011;3638;48.820;9.244;2023-04-03T00:40:18;6.83;;;4.30;;
7193;SDS011;3638;48.820;9.244;2023-04-03T00:42:48;4.63;;;4.23;;
7193;SDS011;3638;48.820;9.244;2023-04-03T00:45:26;5.83;;;4.67;;
7193;SDS011;3638;48.820;9.244;2023-04-03T00:48:06;6.20;;;5.07;;
7193;SDS011;3638;48.820;9.244;2023-04-03T00:50:40;5.07;;;4.60;;
7193;SDS011;3638;48.820;9.244;2023-04-03T00:53:10;5.37;;;4.40;;
7193;SDS011;3638;48.820;9.244;2023-04-03T00:55:40;5.40;;;4.10;;
7193;SDS011;3638;48.820;9.244;2023-04-03T00:58:09;5.07;;;4.43;;
7193;SDS011;3638;48.820;9.244;2023-04-03T01:00:40;4.30;;;3.90;;
7193;SDS011;3638;48.820;9.244;2023-04-03T01:03:12;5.00;;;4.60;;
7193;SDS011;3638;48.820;9.244;2023-04-03T01:05:39;4.87;;;4.47;;
7193;SDS011;3638;48.820;9.244;2023-04-03T01:08:07;4.83;;;4.30;;
7193;SDS011;3638;48.820;9.244;2023-04-03T01:10:34;4.67;;;4.27;;
7193;SDS011;3638;48.820;9.244;2023-04-03T01:13:01;4.67;;;4.27;;
7193;SDS011;3638;48.820;9.244;2023-04-03T01:15:46;5.63;;;4.70;;
7193;SDS011;3638;48.820;9.244;2023-04-03T01:18:12;4.63;;;4.13;;
7193;SDS011;3638;48.820;9.244;2023-04-03T01:20:50;5.00;;;4.57;;
7193;SDS011;3638;48.820;9.244;2023-04-03T01:23:59;4.60;;;4.20;;
7193;SDS011;3638;48.820;9.244;2023-04-03T01:26:47;4.77;;;4.37;;
7193;SDS011;3638;48.820;9.244;2023-04-03T01:29:15;5.03;;;4.63;;
7193;SDS011;3638;48.820;9.244;2023-04-03T01:34:30;5.17;;;4.53;;
7193;SDS011;3638;48.820;9.244;2023-04-03T01:36:57;4.60;;;4.20;;
7193;SDS011;3638;48.820;9.244;2023-04-03T01:39:24;4.97;;;4.47;;
7193;SDS011;3638;48.820;9.244;2023-04-03T01:41:51;4.83;;;4.43;;
7193;SDS011;3638;48.820;9.244;2023-04-03T01:44:18;4.83;;;4.43;;
7193;SDS011;3638;48.820;9.244;2023-04-03T01:46:45;7.30;;;4.60;;
7193;SDS011;3638;48.820;9.244;2023-04-03T01:49:13;4.93;;;4.43;;
7193;SDS011;3638;48.820;9.244;2023-04-03T01:51:40;4.87;;;4.37;;
7193;SDS011;3638;48.820;9.244;2023-04-03T01:54:09;5.10;;;4.53;;
7193;SDS011;3638;48.820;9.244;2023-04-03T01:56:36;5.40;;;4.90;;
7193;SDS011;3638;48.820;9.244;2023-04-03T01:59:04;6.00;;;5.00;;
7193;SDS011;3638;48.820;9.244;2023-04-03T02:01:30;5.40;;;4.83;;
7193;SDS011;3638;48.820;9.244;2023-04-03T02:03:58;5.80;;;5.20;;
7193;SDS011;3638;48.820;9.244;2023-04-03T02:06:26;5.17;;;4.77;;
7193;SDS011;3638;48.820;9.244;2023-04-03T02:08:53;4.70;;;4.30;;
7193;SDS011;3638;48.820;9.244;2023-04-03T02:11:20;5.50;;;5.00;;
7193;SDS011;3638;48.820;9.244;2023-04-03T02:13:47;5.23;;;4.73;;
7193;SDS011;3638;48.820;9.244;2023-04-03T02:16:14;5.23;;;4.73;;
7193;SDS011;3638;48.820;9.244;2023-04-03T02:18:41;4.90;;;4.50;;
7193;SDS011;3638;48.820;9.244;2023-04-03T02:21:08;5.17;;;4.67;;
7193;SDS011;3638;48.820;9.244;2023-04-03T02:23:36;4.83;;;4.33;;
7193;SDS011;3638;48.820;9.244;2023-04-03T02:26:04;4.87;;;4.47;;
7193;SDS011;3638;48.820;9.244;2023-04-03T02:28:34;5.23;;;4.73;;
7193;SDS011;3638;48.820;9.244;2023-04-03T02:31:01;5.13;;;4.50;;
7193;SDS011;3638;48.820;9.244;2023-04-03T02:33:28;5.10;;;4.70;;
7193;SDS011;3638;48.820;9.244;2023-04-03T02:35:56;4.63;;;4.13;;
7193;SDS011;3638;48.820;9.244;2023-04-03T02:38:23;7.13;;;4.73;;
7193;SDS011;3638;48.820;9.244;2023-04-03T02:40:52;4.90;;;4.50;;
7193;SDS011;3638;48.820;9.244;2023-04-03T02:43:19;4.77;;;4.20;;
7193;SDS011;3638;48.820;9.244;2023-04-03T02:45:46;4.87;;;4.47;;
7193;SDS011;3638;48.820;9.244;2023-04-03T02:48:13;5.00;;;4.50;;
7193;SDS011;3638;48.820;9.244;2023-04-03T02:50:41;5.47;;;4.43;;
7193;SDS011;3638;48.820;9.244;2023-04-03T02:53:08;5.40;;;4.90;;
7193;SDS011;3638;48.820;9.244;2023-04-03T02:55:35;5.10;;;4.60;;
7193;SDS011;3638;48.820;9.244;2023-04-03T02:58:03;5.23;;;4.20;;
7193;SDS011;3638;48.820;9.244;2023-04-03T03:00:30;4.47;;;4.07;;
7193;SDS011;3638;48.820;9.244;2023-04-03T03:02:57;5.40;;;4.23;;
7193;SDS011;3638;48.820;9.244;2023-04-03T03:05:24;4.80;;;4.40;;
7193;SDS011;3638;48.820;9.244;2023-04-03T03:07:52;4.73;;;4.33;;
7193;SDS011;3638;48.820;9.244;2023-04-03T03:10:19;5.53;;;4.20;;
7193;SDS011;3638;48.820;9.244;2023-04-03T03:12:46;4.30;;;4.00;;
7193;SDS011;3638;48.820;9.244;2023-04-03T03:15:15;4.50;;;4.10;;
7193;SDS011;3638;48.820;9.244;2023-04-03T03:17:42;6.93;;;4.33;;
7193;SDS011;3638;48.820;9.244;2023-04-03T03:20:10;4.50;;;4.10;;
7193;SDS011;3638;48.820;9.244;2023-04-03T03:22:39;4.40;;;4.00;;
7193;SDS011;3638;48.820;9.244;2023-04-03T03:25:06;4.87;;;4.37;;
7193;SDS011;3638;48.820;9.244;2023-04-03T03:27:35;4.63;;;4.20;;
7193;SDS011;3638;48.820;9.244;2023-04-03T03:30:02;5.27;;;4.37;;
7193;SDS011;3638;48.820;9.244;2023-04-03T03:32:32;5.40;;;4.20;;
7193;SDS011;3638;48.820;9.244;2023-04-03T03:34:58;5.07;;;4.67;;
7193;SDS011;3638;48.820;9.244;2023-04-03T03:37:26;5.80;;;4.37;;
7193;SDS011;3638;48.820;9.244;2023-04-03T03:39:53;4.47;;;4.07;;
7193;SDS011;3638;48.820;9.244;2023-04-03T03:42:20;4.73;;;4.10;;
7193;SDS011;3638;48.820;9.244;2023-04-03T03:44:47;4.77;;;4.33;;
7193;SDS011;3638;48.820;9.244;2023-04-03T03:47:14;5.03;;;4.53;;
7193;SDS011;3638;48.820;9.244;2023-04-03T03:49:43;4.73;;;4.30;;
7193;SDS011;3638;48.820;9.244;2023-04-03T03:52:10;5.00;;;4.20;;
7193;SDS011;3638;48.820;9.244;2023-04-03T03:54:37;4.57;;;4.10;;
7193;SDS011;3638;48.820;9.244;2023-04-03T03:57:04;4.57;;;4.17;;
7193;SDS011;3638;48.820;9.244;2023-04-03T03:59:31;4.57;;;4.17;;
7193;SDS011;3638;48.820;9.244;2023-04-03T04:01:58;5.07;;;4.10;;
7193;SDS011;3638;48.820;9.244;2023-04-03T04:04:25;4.50;;;4.10;;
7193;SDS011;3638;48.820;9.244;2023-04-03T04:06:54;4.37;;;4.00;;
7193;SDS011;3638;48.820;9.244;2023-04-03T04:09:21;4.80;;;4.20;;
7193;SDS011;3638;48.820;9.244;2023-04-03T04:11:48;4.70;;;4.17;;
7193;SDS011;3638;48.820;9.244;2023-04-03T04:14:15;4.10;;;3.80;;
7193;SDS011;3638;48.820;9.244;2023-04-03T04:16:42;4.23;;;3.83;;
7193;SDS011;3638;48.820;9.244;2023-04-03T04:19:10;4.73;;;4.03;;
7193;SDS011;3638;48.820;9.244;2023-04-03T04:21:37;4.07;;;3.67;;
7193;SDS011;3638;48.820;9.244;2023-04-03T04:24:06;4.37;;;4.07;;
7193;SDS011;3638;48.820;9.244;2023-04-03T04:26:33;6.27;;;4.17;;
7193;SDS011;3638;48.820;9.244;2023-04-03T04:29:00;4.30;;;4.00;;
7193;SDS011;3638;48.820;9.244;2023-04-03T04:31:28;4.30;;;4.00;;
7193;SDS011;3638;48.820;9.244;2023-04-03T04:33:55;4.40;;;4.10;;
7193;SDS011;3638;48.820;9.244;2023-04-03T04:36:22;4.43;;;4.03;;
7193;SDS011;3638;48.820;9.244;2023-04-03T04:38:49;4.17;;;3.83;;
7193;SDS011;3638;48.820;9.244;2023-04-03T04:41:19;4.03;;;3.73;;
7193;SDS011;3638;48.820;9.244;2023-04-03T04:43:47;4.40;;;4.00;;
7193;SDS011;3638;48.820;9.244;2023-04-03T04:46:14;3.97;;;3.67;;
7193;SDS011;3638;48.820;9.244;2023-04-03T04:51:09;4.10;;;3.80;;
7193;SDS011;3638;48.820;9.244;2023-04-03T04:53:36;3.87;;;3.50;;
7193;SDS011;3638;48.820;9.244;2023-04-03T04:56:03;5.30;;;3.80;;
7193;SDS011;3638;48.820;9.244;2023-04-03T04:58:32;4.43;;;4.13;;
7193;SDS011;3638;48.820;9.244;2023-04-03T05:00:59;5.17;;;4.20;;
7193;SDS011;3638;48.820;9.244;2023-04-03T05:03:27;4.50;;;4.10;;
7193;SDS011;3638;48.820;9.244;2023-04-03T05:05:54;3.90;;;3.60;;
7193;SDS011;3638;48.820;9.244;2023-04-03T05:08:21;4.43;;;4.10;;
7193;SDS011;3638;48.820;9.244;2023-04-03T05:10:48;4.43;;;4.00;;
7193;SDS011;3638;48.820;9.244;2023-04-03T05:13:15;4.80;;;4.20;;
7193;SDS011;3638;48.820;9.244;2023-04-03T05:15:44;4.10;;;3.80;;
7193;SDS011;3638;48.820;9.244;2023-04-03T05:18:11;6.00;;;4.43;;
7193;SDS011;3638;48.820;9.244;2023-04-03T05:20:39;4.37;;;3.90;;
7193;SDS011;3638;48.820;9.244;2023-04-03T05:23:08;5.67;;;4.23;;
7193;SDS011;3638;48.820;9.244;2023-04-03T05:25:36;4.20;;;3.90;;
7193;SDS011;3638;48.820;9.244;2023-04-03T05:28:04;4.63;;;4.23;;
7193;SDS011;3638;48.820;9.244;2023-04-03T05:30:31;4.53;;;4.10;;
7193;SDS011;3638;48.820;9.244;2023-04-03T05:33:00;4.70;;;4.30;;
7193;SDS011;3638;48.820;9.244;2023-04-03T05:35:27;4.60;;;4.07;;
7193;SDS011;3638;48.820;9.244;2023-04-03T05:37:54;5.33;;;4.00;;
7193;SDS011;3638;48.820;9.244;2023-04-03T05:40:21;4.50;;;3.97;;
7193;SDS011;3638;48.820;9.244;2023-04-03T05:42:48;5.10;;;4.07;;
7193;SDS011;3638;48.820;9.244;2023-04-03T05:45:15;6.67;;;3.77;;
7193;SDS011;3638;48.820;9.244;2023-04-03T05:47:42;4.90;;;4.50;;
7193;SDS011;3638;48.820;9.244;2023-04-03T05:50:11;4.97;;;4.20;;
7193;SDS011;3638;48.820;9.244;2023-04-03T05:52:38;4.60;;;4.20;;
7193;SDS011;3638;48.820;9.244;2023-04-03T05:55:10;4.63;;;4.23;;
7193;SDS011;3638;48.820;9.244;2023-04-03T05:57:37;4.33;;;4.03;;
7193;SDS011;3638;48.820;9.244;2023-04-03T06:00:04;4.20;;;3.80;;
7193;SDS011;3638;48.820;9.244;2023-04-03T06:02:34;4.83;;;4.00;;
7193;SDS011;3638;48.820;9.244;2023-04-03T06:05:01;4.40;;;4.00;;
7193;SDS011;3638;48.820;9.244;2023-04-03T06:07:30;5.37;;;4.37;;
7193;SDS011;3638;48.820;9.244;2023-04-03T06:09:57;4.30;;;4.00;;
7193;SDS011;3638;48.820;9.244;2023-04-03T06:12:24;4.50;;;4.07;;
7193;SDS011;3638;48.820;9.244;2023-04-03T06:14:51;4.10;;;3.80;;
7193;SDS011;3638;48.820;9.244;2023-04-03T06:17:18;5.17;;;4.07;;
7193;SDS011;3638;48.820;9.244;2023-04-03T06:19:45;5.17;;;3.67;;
7193;SDS011;3638;48.820;9.244;2023-04-03T06:22:12;5.10;;;3.80;;
7193;SDS011;3638;48.820;9.244;2023-04-03T06:24:40;4.33;;;4.00;;
7193;SDS011;3638;48.820;9.244;2023-04-03T06:27:09;4.10;;;3.80;;
7193;SDS011;3638;48.820;9.244;2023-04-03T06:29:37;5.73;;;4.23;;
7193;SDS011;3638;48.820;9.244;2023-04-03T06:32:04;4.10;;;3.53;;
7193;SDS011;3638;48.820;9.244;2023-04-03T06:34:31;4.10;;;3.80;;
7193;SDS011;3638;48.820;9.244;2023-04-03T06:36:58;4.60;;;4.00;;
7193;SDS011;3638;48.820;9.244;2023-04-03T06:39:25;5.40;;;4.10;;
7193;SDS011;3638;48.820;9.244;2023-04-03T06:41:53;4.47;;;4.07;;
7193;SDS011;3638;48.820;9.244;2023-04-03T06:44:20;4.20;;;3.90;;
7193;SDS011;3638;48.820;9.244;2023-04-03T06:46:47;5.30;;;4.50;;
7193;SDS011;3638;48.820;9.244;2023-04-03T06:49:14;5.57;;;4.40;;
7193;SDS011;3638;48.820;9.244;2023-04-03T06:51:41;7.43;;;4.83;;
7193;SDS011;3638;48.820;9.244;2023-04-03T06:54:08;4.90;;;4.37;;
7193;SDS011;3638;48.820;9.244;2023-04-03T06:56:35;5.10;;;4.17;;
7193;SDS011;3638;48.820;9.244;2023-04-03T06:59:03;6.20;;;4.73;;
7193;SDS011;3638;48.820;9.244;2023-04-03T07:01:30;5.00;;;4.50;;
7193;SDS011;3638;48.820;9.244;2023-04-03T07:03:57;5.00;;;4.17;;
7193;SDS011;3638;48.820;9.244;2023-04-03T07:06:25;4.67;;;4.07;;
7193;SDS011;3638;48.820;9.244;2023-04-03T07:08:52;4.47;;;4.07;;
7193;SDS011;3638;48.820;9.244;2023-04-03T07:11:20;6.37;;;4.43;;
7193;SDS011;3638;48.820;9.244;2023-04-03T07:13:47;6.07;;;4.33;;
7193;SDS011;3638;48.820;9.244;2023-04-03T07:16:16;4.77;;;4.37;;
7193;SDS011;3638;48.820;9.244;2023-04-03T07:18:43;4.43;;;4.03;;
7193;SDS011;3638;48.820;9.244;2023-04-03T07:21:10;5.80;;;4.13;;
7193;SDS011;3638;48.820;9.244;2023-04-03T07:23:37;4.37;;;3.97;;
7193;SDS011;3638;48.820;9.244;2023-04-03T07:26:05;4.30;;;4.00;;
7193;SDS011;3638;48.820;9.244;2023-04-03T07:28:33;4.37;;;3.97;;
7193;SDS011;3638;48.820;9.244;2023-04-03T07:31:02;4.07;;;3.77;;
7193;SDS011;3638;48.820;9.244;2023-04-03T07:33:34;5.23;;;3.70;;
7193;SDS011;3638;48.820;9.244;2023-04-03T07:36:02;4.93;;;4.37;;
7193;SDS011;3638;48.820;9.244;2023-04-03T07:38:32;4.73;;;3.90;;
7193;SDS011;3638;48.820;9.244;2023-04-03T07:41:00;4.57;;;4.10;;
7193;SDS011;3638;48.820;9.244;2023-04-03T07:43:27;5.43;;;4.60;;
7193;SDS011;3638;48.820;9.244;2023-04-03T07:45:54;4.40;;;4.00;;
7193;SDS011;3638;48.820;9.244;2023-04-03T07:48:21;5.87;;;4.40;;
7193;SDS011;3638;48.820;9.244;2023-04-03T07:50:51;4.43;;;3.87;;
7193;SDS011;3638;48.820;9.244;2023-04-03T07:53:19;4.57;;;3.90;;
7193;SDS011;3638;48.820;9.244;2023-04-03T07:55:46;4.93;;;3.77;;
7193;SDS011;3638;48.820;9.244;2023-04-03T07:58:14;5.33;;;4.27;;
7193;SDS011;3638;48.820;9.244;2023-04-03T08:00:44;5.27;;;4.00;;
7193;SDS011;3638;48.820;9.244;2023-04-03T08:03:12;4.40;;;4.00;;
7193;SDS011;3638;48.820;9.244;2023-04-03T08:05:41;5.43;;;4.20;;
7193;SDS011;3638;48.820;9.244;2023-04-03T08:08:12;4.67;;;4.27;;
7193;SDS011;3638;48.820;9.244;2023-04-03T08:10:41;4.40;;;4.00;;
7193;SDS011;3638;48.820;9.244;2023-04-03T08:13:09;5.67;;;4.33;;
7193;SDS011;3638;48.820;9.244;2023-04-03T08:15:36;4.70;;;3.80;;
7193;SDS011;3638;48.820;9.244;2023-04-03T08:18:04;5.63;;;4.20;;
7193;SDS011;3638;48.820;9.244;2023-04-03T08:20:30;6.77;;;4.07;;
7193;SDS011;3638;48.820;9.244;2023-04-03T08:22:57;5.00;;;3.53;;
7193;SDS011;3638;48.820;9.244;2023-04-03T08:25:26;5.10;;;4.20;;
7193;SDS011;3638;48.820;9.244;2023-04-03T08:27:55;5.77;;;4.20;;
7193;SDS011;3638;48.820;9.244;2023-04-03T08:30:22;3.90;;;3.50;;
7193;SDS011;3638;48.820;9.244;2023-04-03T08:32:49;3.80;;;3.50;;
7193;SDS011;3638;48.820;9.244;2023-04-03T08:35:16;5.57;;;3.80;;
7193;SDS011;3638;48.820;9.244;2023-04-03T08:37:44;4.33;;;3.83;;
7193;SDS011;3638;48.820;9.244;2023-04-03T08:40:12;4.77;;;4.03;;
7193;SDS011;3638;48.820;9.244;2023-04-03T08:42:46;4.30;;;3.90;;
7193;SDS011;3638;48.820;9.244;2023-04-03T08:45:25;4.40;;;3.47;;
7193;SDS011;3638;48.820;9.244;2023-04-03T08:48:00;4.07;;;3.60;;
7193;SDS011;3638;48.820;9.244;2023-04-03T08:50:33;4.27;;;3.90;;
7193;SDS011;3638;48.820;9.244;2023-04-03T08:53:10;3.87;;;3.50;;
7193;SDS011;3638;48.820;9.244;2023-04-03T08:55:43;4.50;;;4.10;;
7193;SDS011;3638;48.820;9.244;2023-04-03T08:58:14;4.13;;;3.70;;
7193;SDS011;3638;48.820;9.244;2023-04-03T09:00:44;4.43;;;3.90;;
7193;SDS011;3638;48.820;9.244;2023-04-03T09:03:15;5.33;;;4.13;;
7193;SDS011;3638;48.820;9.244;2023-04-03T09:05:45;4.43;;;3.57;;
7193;SDS011;3638;48.820;9.244;2023-04-03T09:08:19;5.67;;;4.00;;
7193;SDS011;3638;48.820;9.244;2023-04-03T09:10:51;4.30;;;3.90;;
7193;SDS011;3638;48.820;9.244;2023-04-03T09:13:29;5.07;;;3.80;;
7193;SDS011;3638;48.820;9.244;2023-04-03T09:16:02;4.90;;;3.93;;
7193;SDS011;3638;48.820;9.244;2023-04-03T09:18:47;5.87;;;4.07;;
7193;SDS011;3638;48.820;9.244;2023-04-03T09:21:20;4.23;;;3.87;;
7193;SDS011;3638;48.820;9.244;2023-04-03T09:23:52;4.60;;;3.93;;
7193;SDS011;3638;48.820;9.244;2023-04-03T09:26:23;3.80;;;3.50;;
7193;SDS011;3638;48.820;9.244;2023-04-03T09:28:57;4.53;;;3.50;;
7193;SDS011;3638;48.820;9.244;2023-04-03T09:31:29;5.47;;;3.73;;
7193;SDS011;3638;48.820;9.244;2023-04-03T09:34:05;4.30;;;3.50;;
7193;SDS011;3638;48.820;9.244;2023-04-03T09:36:39;4.17;;;3.10;;
7193;SDS011;3638;48.820;9.244;2023-04-03T09:39:11;4.80;;;3.53;;
7193;SDS011;3638;48.820;9.244;2023-04-03T09:41:41;3.70;;;3.40;;
7193;SDS011;3638;48.820;9.244;2023-04-03T09:44:22;5.40;;;3.83;;
7193;SDS011;3638;48.820;9.244;2023-04-03T09:46:50;3.60;;;3.30;;
7193;SDS011;3638;48.820;9.244;2023-04-03T09:49:18;4.97;;;3.80;;
7193;SDS011;3638;48.820;9.244;2023-04-03T09:51:46;4.37;;;3.50;;
7193;SDS011;3638;48.820;9.244;2023-04-03T09:54:23;4.73;;;3.83;;
7193;SDS011;3638;48.820;9.244;2023-04-03T09:57:07;6.33;;;3.60;;
7193;SDS011;3638;48.820;9.244;2023-04-03T09:59:40;4.90;;;3.50;;
7193;SDS011;3638;48.820;9.244;2023-04-03T10:02:21;3.70;;;3.40;;
7193;SDS011;3638;48.820;9.244;2023-04-03T10:04:58;5.70;;;3.47;;
7193;SDS011;3638;48.820;9.244;2023-04-03T10:07:26;3.77;;;3.30;;
7193;SDS011;3638;48.820;9.244;2023-04-03T10:09:59;4.33;;;3.10;;
7193;SDS011;3638;48.820;9.244;2023-04-03T10:12:42;4.13;;;3.43;;
7193;SDS011;3638;48.820;9.244;2023-04-03T10:15:11;4.47;;;3.80;;
7193;SDS011;3638;48.820;9.244;2023-04-03T10:17:45;3.83;;;3.40;;
7193;SDS011;3638;48.820;9.244;2023-04-03T10:20:25;4.43;;;3.57;;
7193;SDS011;3638;48.820;9.244;2023-04-03T10:23:00;7.37;;;3.77;;
7193;SDS011;3638;48.820;9.244;2023-04-03T10:25:41;3.37;;;3.07;;
7193;SDS011;3638;48.820;9.244;2023-04-03T10:28:17;3.70;;;3.40;;
7193;SDS011;3638;48.820;9.244;2023-04-03T10:30:55;5.33;;;3.50;;
7193;SDS011;3638;48.820;9.244;2023-04-03T10:33:44;4.43;;;3.63;;
7193;SDS011;3638;48.820;9.244;2023-04-03T10:36:27;4.23;;;2.90;;
7193;SDS011;3638;48.820;9.244;2023-04-03T10:39:05;3.60;;;3.30;;
7193;SDS011;3638;48.820;9.244;2023-04-03T10:41:51;5.43;;;2.80;;
7193;SDS011;3638;48.820;9.244;2023-04-03T10:44:29;3.33;;;2.97;;
7193;SDS011;3638;48.820;9.244;2023-04-03T10:47:07;6.37;;;3.10;;
7193;SDS011;3638;48.820;9.244;2023-04-03T10:49:46;3.40;;;3.10;;
7193;SDS011;3638;48.820;9.244;2023-04-03T10:52:23;3.67;;;3.17;;
7193;SDS011;3638;48.820;9.244;2023-04-03T10:55:00;4.53;;;3.50;;
7193;SDS011;3638;48.820;9.244;2023-04-03T10:57:35;3.07;;;2.80;;
7193;SDS011;3638;48.820;9.244;2023-04-03T11:00:04;3.57;;;2.97;;
7193;SDS011;3638;48.820;9.244;2023-04-03T11:02:41;2.90;;;2.60;;
7193;SDS011;3638;48.820;9.244;2023-04-03T11:05:15;3.27;;;2.97;;
7193;SDS011;3638;48.820;9.244;2023-04-03T11:07:54;3.03;;;2.77;;
7193;SDS011;3638;48.820;9.244;2023-04-03T11:10:24;4.17;;;2.93;;
7193;SDS011;3638;48.820;9.244;2023-04-03T11:13:06;4.57;;;2.87;;
7193;SDS011;3638;48.820;9.244;2023-04-03T11:15:38;3.67;;;3.37;;
7193;SDS011;3638;48.820;9.244;2023-04-03T11:18:09;3.30;;;3.00;;
7193;SDS011;3638;48.820;9.244;2023-04-03T11:20:41;4.50;;;3.10;;
7193;SDS011;3638;48.820;9.244;2023-04-03T11:23:18;4.00;;;3.60;;
7193;SDS011;3638;48.820;9.244;2023-04-03T11:25:50;5.17;;;2.90;;
7193;SDS011;3638;48.820;9.244;2023-04-03T11:28:21;3.40;;;3.10;;
7193;SDS011;3638;48.820;9.244;2023-04-03T11:30:49;3.27;;;2.80;;
7193;SDS011;3638;48.820;9.244;2023-04-03T11:33:30;5.10;;;3.10;;
7193;SDS011;3638;48.820;9.244;2023-04-03T11:36:08;5.80;;;3.30;;
7193;SDS011;3638;48.820;9.244;2023-04-03T11:38:42;4.03;;;3.30;;
7193;SDS011;3638;48.820;9.244;2023-04-03T11:41:10;3.77;;;3.23;;
7193;SDS011;3638;48.820;9.244;2023-04-03T11:43:40;3.80;;;3.03;;
7193;SDS011;3638;48.820;9.244;2023-04-03T11:46:10;3.67;;;3.30;;
7193;SDS011;3638;48.820;9.244;2023-04-03T11:48:51;3.60;;;3.20;;
7193;SDS011;3638;48.820;9.244;2023-04-03T11:51:40;3.13;;;2.83;;
7193;SDS011;3638;48.820;9.244;2023-04-03T12:06:52;3.70;;;2.80;;
7193;SDS011;3638;48.820;9.244;2023-04-03T12:12:42;4.10;;;3.20;;
7193;SDS011;3638;48.820;9.244;2023-04-03T12:15:26;4.50;;;3.30;;
7193;SDS011;3638;48.820;9.244;2023-04-03T12:24:40;4.17;;;3.30;;
7193;SDS011;3638;48.820;9.244;2023-04-03T12:27:15;3.37;;;3.00;;
7193;SDS011;3638;48.820;9.244;2023-04-03T12:29:53;4.17;;;3.00;;
7193;SDS011;3638;48.820;9.244;2023-04-03T12:32:35;3.10;;;2.80;;
7193;SDS011;3638;48.820;9.244;2023-04-03T12:35:17;4.03;;;3.30;;
7193;SDS011;3638;48.820;9.244;2023-04-03T12:37:54;2.90;;;2.70;;
7193;SDS011;3638;48.820;9.244;2023-04-03T12:40:46;3.30;;;3.00;;
7193;SDS011;3638;48.820;9.244;2023-04-03T12:43:20;3.10;;;2.90;;
7193;SDS011;3638;48.820;9.244;2023-04-03T12:46:09;4.10;;;3.07;;
7193;SDS011;3638;48.820;9.244;2023-04-03T12:48:46;3.30;;;3.00;;
7193;SDS011;3638;48.820;9.244;2023-04-03T12:51:17;4.53;;;3.30;;
7193;SDS011;3638;48.820;9.244;2023-04-03T12:53:49;4.03;;;3.33;;
7193;SDS011;3638;48.820;9.244;2023-04-03T12:56:19;7.33;;;3.17;;
7193;SDS011;3638;48.820;9.244;2023-04-03T12:58:50;3.27;;;2.90;;
7193;SDS011;3638;48.820;9.244;2023-04-03T13:01:20;3.47;;;2.73;;
7193;SDS011;3638;48.820;9.244;2023-04-03T13:03:52;2.93;;;2.63;;
7193;SDS011;3638;48.820;9.244;2023-04-03T13:06:22;3.67;;;3.10;;
7193;SDS011;3638;48.820;9.244;2023-04-03T13:08:53;4.67;;;2.83;;
7193;SDS011;3638;48.820;9.244;2023-04-03T13:11:23;4.10;;;2.83;;
7193;SDS011;3638;48.820;9.244;2023-04-03T13:13:56;3.83;;;2.87;;
7193;SDS011;3638;48.820;9.244;2023-04-03T13:16:27;3.30;;;2.80;;
7193;SDS011;3638;48.820;9.244;2023-04-03T13:18:54;4.17;;;3.00;;
7193;SDS011;3638;48.820;9.244;2023-04-03T13:21:22;4.13;;;2.70;;
7193;SDS011;3638;48.820;9.244;2023-04-03T13:23:54;3.63;;;3.00;;
7193;SDS011;3638;48.820;9.244;2023-04-03T13:26:25;3.83;;;2.80;;
7193;SDS011;3638;48.820;9.244;2023-04-03T13:28:57;4.77;;;2.70;;
7193;SDS011;3638;48.820;9.244;2023-04-03T13:31:31;4.40;;;3.20;;
7193;SDS011;3638;48.820;9.244;2023-04-03T13:34:02;3.80;;;2.70;;
7193;SDS011;3638;48.820;9.244;2023-04-03T13:36:33;4.70;;;2.83;;
7193;SDS011;3638;48.820;9.244;2023-04-03T13:39:04;3.10;;;2.80;;
7193;SDS011;3638;48.820;9.244;2023-04-03T13:41:34;2.80;;;2.60;;
7193;SDS011;3638;48.820;9.244;2023-04-03T13:44:25;3.23;;;2.73;;
7193;SDS011;3638;48.820;9.244;2023-04-03T13:47:00;4.00;;;2.70;;
7193;SDS011;3638;48.820;9.244;2023-04-03T13:49:43;3.50;;;3.07;;
7193;SDS011;3638;48.820;9.244;2023-04-03T13:52:22;4.87;;;2.93;;
7193;SDS011;3638;48.820;9.244;2023-04-03T13:54:55;3.07;;;2.80;;
7193;SDS011;3638;48.820;9.244;2023-04-03T13:57:24;3.33;;;2.80;;
7193;SDS011;3638;48.820;9.244;2023-04-03T13:59:52;3.10;;;2.80;;
7193;SDS011;3638;48.820;9.244;2023-04-03T14:02:20;4.03;;;3.30;;
7193;SDS011;3638;48.820;9.244;2023-04-03T14:04:55;3.73;;;3.43;;
7193;SDS011;3638;48.820;9.244;2023-04-03T14:07:26;3.30;;;3.00;;
7193;SDS011;3638;48.820;9.244;2023-04-03T14:09:56;4.43;;;3.40;;
7193;SDS011;3638;48.820;9.244;2023-04-03T14:12:25;3.37;;;3.07;;
7193;SDS011;3638;48.820;9.244;2023-04-03T14:14:54;3.23;;;2.93;;
7193;SDS011;3638;48.820;9.244;2023-04-03T14:17:22;4.20;;;3.00;;
7193;SDS011;3638;48.820;9.244;2023-04-03T14:19:52;3.83;;;3.10;;
7193;SDS011;3638;48.820;9.244;2023-04-03T14:22:22;4.60;;;2.87;;
7193;SDS011;3638;48.820;9.244;2023-04-03T14:24:51;3.90;;;3.10;;
7193;SDS011;3638;48.820;9.244;2023-04-03T14:27:21;3.03;;;2.70;;
7193;SDS011;3638;48.820;9.244;2023-04-03T14:29:52;4.43;;;2.97;;
7193;SDS011;3638;48.820;9.244;2023-04-03T14:32:21;5.57;;;2.93;;
7193;SDS011;3638;48.820;9.244;2023-04-03T14:34:50;4.93;;;3.00;;
7193;SDS011;3638;48.820;9.244;2023-04-03T14:37:18;3.73;;;3.23;;
7193;SDS011;3638;48.820;9.244;2023-04-03T14:39:49;3.60;;;3.10;;
7193;SDS011;3638;48.820;9.244;2023-04-03T14:42:19;3.10;;;2.83;;
7193;SDS011;3638;48.820;9.244;2023-04-03T14:44:50;3.60;;;3.30;;
7193;SDS011;3638;48.820;9.244;2023-04-03T14:47:18;3.20;;;2.90;;
7193;SDS011;3638;48.820;9.244;2023-04-03T14:49:48;3.23;;;2.90;;
7193;SDS011;3638;48.820;9.244;2023-04-03T14:52:17;5.77;;;3.33;;
7193;SDS011;3638;48.820;9.244;2023-04-03T14:54:47;4.67;;;3.13;;
7193;SDS011;3638;48.820;9.244;2023-04-03T14:57:15;3.40;;;2.87;;
7193;SDS011;3638;48.820;9.244;2023-04-03T14:59:43;3.77;;;3.00;;
7193;SDS011;3638;48.820;9.244;2023-04-03T15:02:20;3.47;;;3.07;;
7193;SDS011;3638;48.820;9.244;2023-04-03T15:04:53;3.23;;;2.93;;
7193;SDS011;3638;48.820;9.244;2023-04-03T15:07:20;3.27;;;2.80;;
7193;SDS011;3638;48.820;9.244;2023-04-03T15:09:48;3.40;;;2.90;;
7193;SDS011;3638;48.820;9.244;2023-04-03T15:12:15;2.90;;;2.70;;
7193;SDS011;3638;48.820;9.244;2023-04-03T15:14:44;3.83;;;2.80;;
7193;SDS011;3638;48.820;9.244;2023-04-03T15:17:13;3.37;;;3.07;;
7193;SDS011;3638;48.820;9.244;2023-04-03T15:19:43;3.47;;;2.90;;
7193;SDS011;3638;48.820;9.244;2023-04-03T15:22:12;3.40;;;3.10;;
7193;SDS011;3638;48.820;9.244;2023-04-03T15:24:41;3.33;;;3.10;;
7193;SDS011;3638;48.820;9.244;2023-04-03T15:27:09;3.20;;;2.90;;
7193;SDS011;3638;48.820;9.244;2023-04-03T15:29:38;3.43;;;2.70;;
7193;SDS011;3638;48.820;9.244;2023-04-03T15:32:08;3.20;;;2.90;;
7193;SDS011;3638;48.820;9.244;2023-04-03T15:34:36;4.47;;;3.30;;
7193;SDS011;3638;48.820;9.244;2023-04-03T15:37:03;3.93;;;3.00;;
7193;SDS011;3638;48.820;9.244;2023-04-03T15:39:31;4.60;;;3.50;;
7193;SDS011;3638;48.820;9.244;2023-04-03T15:41:58;3.63;;;3.00;;
7193;SDS011;3638;48.820;9.244;2023-04-03T15:44:30;3.97;;;2.73;;
7193;SDS011;3638;48.820;9.244;2023-04-03T15:46:58;4.50;;;2.83;;
7193;SDS011;3638;48.820;9.244;2023-04-03T15:49:27;4.10;;;3.30;;
7193;SDS011;3638;48.820;9.244;2023-04-03T15:51:54;2.93;;;2.70;;
7193;SDS011;3638;48.820;9.244;2023-04-03T15:54:21;3.80;;;3.10;;
7193;SDS011;3638;48.820;9.244;2023-04-03T15:56:49;3.67;;;3.20;;
7193;SDS011;3638;48.820;9.244;2023-04-03T15:59:16;3.40;;;3.10;;
7193;SDS011;3638;48.820;9.244;2023-04-03T16:01:43;3.83;;;3.27;;